sensor_id;sensor_type;location;lat;lon;timestamp;pressure;altitude;pressure_sealevel;temperature
67509;BMP280;54354;44.724;11.284;2022-08-19T00:01:44;100956.09;;;27.82
67509;BMP280;54354;44.724;11.284;2022-08-19T00:04:12;100935.38;;;27.79
67509;BMP280;54354;44.724;11.284;2022-08-19T00:06:40;100922.31;;;27.77
67509;BMP280;54354;44.724;11.284;2022-08-19T00:09:08;100907.78;;;27.75
67509;BMP280;54354;44.724;11.284;2022-08-19T00:11:34;100901.06;;;27.76
67509;BMP280;54354;44.724;11.284;2022-08-19T00:14:03;100902.34;;;27.75
67509;BMP280;54354;44.724;11.284;2022-08-19T00:16:29;100885.28;;;27.74
67509;BMP280;54354;44.724;11.284;2022-08-19T00:18:55;100866.56;;;27.71
67509;BMP280;54354;44.724;11.284;2022-08-19T00:21:22;100851.28;;;27.67
67509;BMP280;54354;44.724;11.284;2022-08-19T00:23:48;100828.59;;;27.65
67509;BMP280;54354;44.724;11.284;2022-08-19T00:26:13;100811.53;;;27.64
67509;BMP280;54354;44.724;11.284;2022-08-19T00:28:39;100818.78;;;27.62
67509;BMP280;54354;44.724;11.284;2022-08-19T00:31:06;100808.38;;;27.60
67509;BMP280;54354;44.724;11.284;2022-08-19T00:33:32;100801.72;;;27.61
67509;BMP280;54354;44.724;11.284;2022-08-19T00:35:59;100817.00;;;27.64
67509;BMP280;54354;44.724;11.284;2022-08-19T00:38:25;100844.38;;;27.66
67509;BMP280;54354;44.724;11.284;2022-08-19T00:40:51;100858.69;;;27.67
67509;BMP280;54354;44.724;11.284;2022-08-19T00:43:20;100857.03;;;27.64
67509;BMP280;54354;44.724;11.284;2022-08-19T00:45:46;100877.22;;;28.02
67509;BMP280;54354;44.724;11.284;2022-08-19T00:48:13;100876.25;;;27.79
67509;BMP280;54354;44.724;11.284;2022-08-19T00:50:40;100877.44;;;27.71
67509;BMP280;54354;44.724;11.284;2022-08-19T00:53:12;100879.44;;;27.70
67509;BMP280;54354;44.724;11.284;2022-08-19T00:55:42;100897.72;;;27.69
67509;BMP280;54354;44.724;11.284;2022-08-19T00:58:12;100901.94;;;27.71
67509;BMP280;54354;44.724;11.284;2022-08-19T01:00:39;100894.72;;;27.73
67509;BMP280;54354;44.724;11.284;2022-08-19T01:03:07;100872.50;;;27.69
67509;BMP280;54354;44.724;11.284;2022-08-19T01:05:35;100889.06;;;27.71
67509;BMP280;54354;44.724;11.284;2022-08-19T01:08:03;100914.59;;;27.68
67509;BMP280;54354;44.724;11.284;2022-08-19T01:10:39;100904.03;;;27.64
67509;BMP280;54354;44.724;11.284;2022-08-19T01:13:05;100900.44;;;27.69
67509;BMP280;54354;44.724;11.284;2022-08-19T01:15:34;100898.59;;;27.64
67509;BMP280;54354;44.724;11.284;2022-08-19T01:18:05;100897.34;;;27.65
67509;BMP280;54354;44.724;11.284;2022-08-19T01:20:31;100901.13;;;27.62
67509;BMP280;54354;44.724;11.284;2022-08-19T01:22:58;100892.72;;;27.60
67509;BMP280;54354;44.724;11.284;2022-08-19T01:25:42;100900.38;;;27.62
67509;BMP280;54354;44.724;11.284;2022-08-19T01:28:15;100917.22;;;27.60
67509;BMP280;54354;44.724;11.284;2022-08-19T01:30:40;100907.28;;;27.63
67509;BMP280;54354;44.724;11.284;2022-08-19T01:33:06;100888.44;;;27.65
67509;BMP280;54354;44.724;11.284;2022-08-19T01:35:32;100867.75;;;27.62
67509;BMP280;54354;44.724;11.284;2022-08-19T01:38:01;100860.09;;;27.60
67509;BMP280;54354;44.724;11.284;2022-08-19T01:40:32;100834.38;;;27.61
67509;BMP280;54354;44.724;11.284;2022-08-19T01:42:59;100815.31;;;27.61
67509;BMP280;54354;44.724;11.284;2022-08-19T01:45:27;100825.44;;;27.61
67509;BMP280;54354;44.724;11.284;2022-08-19T01:47:54;100810.38;;;27.60
67509;BMP280;54354;44.724;11.284;2022-08-19T01:50:19;100796.78;;;27.60
67509;BMP280;54354;44.724;11.284;2022-08-19T01:52:45;100800.06;;;27.58
67509;BMP280;54354;44.724;11.284;2022-08-19T01:55:15;100803.63;;;27.53
67509;BMP280;54354;44.724;11.284;2022-08-19T01:57:46;100811.78;;;27.53
67509;BMP280;54354;44.724;11.284;2022-08-19T02:00:15;100793.78;;;27.50
67509;BMP280;54354;44.724;11.284;2022-08-19T02:02:41;100795.25;;;27.51
67509;BMP280;54354;44.724;11.284;2022-08-19T02:05:08;100786.34;;;27.51
67509;BMP280;54354;44.724;11.284;2022-08-19T02:07:34;100786.16;;;27.49
67509;BMP280;54354;44.724;11.284;2022-08-19T02:10:08;100793.91;;;27.45
67509;BMP280;54354;44.724;11.284;2022-08-19T02:12:33;100802.78;;;27.45
67509;BMP280;54354;44.724;11.284;2022-08-19T02:14:59;100800.94;;;27.40
67509;BMP280;54354;44.724;11.284;2022-08-19T02:17:28;100789.16;;;27.38
67509;BMP280;54354;44.724;11.284;2022-08-19T02:19:57;100784.94;;;27.36
67509;BMP280;54354;44.724;11.284;2022-08-19T02:22:24;100772.94;;;27.32
67509;BMP280;54354;44.724;11.284;2022-08-19T02:24:54;100762.78;;;27.32
67509;BMP280;54354;44.724;11.284;2022-08-19T02:27:21;100756.09;;;27.33
67509;BMP280;54354;44.724;11.284;2022-08-19T02:29:48;100752.44;;;27.31
67509;BMP280;54354;44.724;11.284;2022-08-19T02:32:14;100739.38;;;27.29
67509;BMP280;54354;44.724;11.284;2022-08-19T02:34:40;100743.88;;;27.27
67509;BMP280;54354;44.724;11.284;2022-08-19T02:37:06;100754.75;;;27.27
67509;BMP280;54354;44.724;11.284;2022-08-19T02:39:52;100758.94;;;27.28
67509;BMP280;54354;44.724;11.284;2022-08-19T02:42:17;100761.97;;;27.24
67509;BMP280;54354;44.724;11.284;2022-08-19T02:44:43;100771.19;;;27.21
67509;BMP280;54354;44.724;11.284;2022-08-19T02:47:09;100768.22;;;27.19
67509;BMP280;54354;44.724;11.284;2022-08-19T02:49:35;100778.59;;;27.21
67509;BMP280;54354;44.724;11.284;2022-08-19T02:52:01;100774.44;;;27.20
67509;BMP280;54354;44.724;11.284;2022-08-19T02:54:26;100779.88;;;27.20
67509;BMP280;54354;44.724;11.284;2022-08-19T02:56:53;100769.84;;;27.15
67509;BMP280;54354;44.724;11.284;2022-08-19T02:59:18;100764.59;;;27.17
67509;BMP280;54354;44.724;11.284;2022-08-19T03:01:45;100760.75;;;27.12
67509;BMP280;54354;44.724;11.284;2022-08-19T03:04:12;100751.63;;;27.10
67509;BMP280;54354;44.724;11.284;2022-08-19T03:06:40;100748.53;;;27.05
67509;BMP280;54354;44.724;11.284;2022-08-19T03:09:06;100757.91;;;27.04
67509;BMP280;54354;44.724;11.284;2022-08-19T03:11:32;100762.94;;;27.00
67509;BMP280;54354;44.724;11.284;2022-08-19T03:13:59;100753.69;;;26.96
67509;BMP280;54354;44.724;11.284;2022-08-19T03:16:27;100756.16;;;26.94
67509;BMP280;54354;44.724;11.284;2022-08-19T03:18:53;100755.97;;;26.92
67509;BMP280;54354;44.724;11.284;2022-08-19T03:21:24;100745.41;;;26.88
67509;BMP280;54354;44.724;11.284;2022-08-19T03:23:53;100759.00;;;26.88
67509;BMP280;54354;44.724;11.284;2022-08-19T03:26:19;100760.13;;;26.93
67509;BMP280;54354;44.724;11.284;2022-08-19T03:28:46;100770.06;;;26.90
67509;BMP280;54354;44.724;11.284;2022-08-19T03:31:16;100772.25;;;26.92
67509;BMP280;54354;44.724;11.284;2022-08-19T03:33:42;100769.88;;;26.88
67509;BMP280;54354;44.724;11.284;2022-08-19T03:36:13;100761.81;;;26.83
67509;BMP280;54354;44.724;11.284;2022-08-19T03:38:43;100752.94;;;26.82
67509;BMP280;54354;44.724;11.284;2022-08-19T03:41:12;100759.81;;;26.83
67509;BMP280;54354;44.724;11.284;2022-08-19T03:43:39;100760.31;;;27.21
67509;BMP280;54354;44.724;11.284;2022-08-19T03:46:11;100760.66;;;26.91
67509;BMP280;54354;44.724;11.284;2022-08-19T03:48:38;100775.63;;;26.85
67509;BMP280;54354;44.724;11.284;2022-08-19T03:51:05;100778.66;;;26.81
67509;BMP280;54354;44.724;11.284;2022-08-19T03:53:32;100784.38;;;26.78
67509;BMP280;54354;44.724;11.284;2022-08-19T03:55:58;100800.69;;;26.78
67509;BMP280;54354;44.724;11.284;2022-08-19T03:58:30;100799.75;;;26.75
67509;BMP280;54354;44.724;11.284;2022-08-19T04:00:56;100809.59;;;26.78
67509;BMP280;54354;44.724;11.284;2022-08-19T04:03:23;100814.25;;;26.78
67509;BMP280;54354;44.724;11.284;2022-08-19T04:05:49;100824.09;;;26.81
67509;BMP280;54354;44.724;11.284;2022-08-19T04:08:15;100827.03;;;26.83
67509;BMP280;54354;44.724;11.284;2022-08-19T04:10:49;100824.09;;;26.81
67509;BMP280;54354;44.724;11.284;2022-08-19T04:13:18;100833.19;;;26.83
67509;BMP280;54354;44.724;11.284;2022-08-19T04:15:44;100820.56;;;26.86
67509;BMP280;54354;44.724;11.284;2022-08-19T04:18:11;100820.75;;;26.88
67509;BMP280;54354;44.724;11.284;2022-08-19T04:20:45;100826.00;;;26.86
67509;BMP280;54354;44.724;11.284;2022-08-19T04:23:12;100823.69;;;26.90
67509;BMP280;54354;44.724;11.284;2022-08-19T04:25:43;100817.53;;;26.89
67509;BMP280;54354;44.724;11.284;2022-08-19T04:28:11;100827.13;;;26.90
67509;BMP280;54354;44.724;11.284;2022-08-19T04:30:39;100820.25;;;26.89
67509;BMP280;54354;44.724;11.284;2022-08-19T04:33:05;100819.94;;;26.93
67509;BMP280;54354;44.724;11.284;2022-08-19T04:35:38;100829.84;;;26.90
67509;BMP280;54354;44.724;11.284;2022-08-19T04:38:04;100829.78;;;26.96
67509;BMP280;54354;44.724;11.284;2022-08-19T04:40:30;100827.75;;;26.96
67509;BMP280;54354;44.724;11.284;2022-08-19T04:43:14;100823.28;;;26.99
67509;BMP280;54354;44.724;11.284;2022-08-19T04:45:42;100829.44;;;26.99
67509;BMP280;54354;44.724;11.284;2022-08-19T04:48:08;100829.13;;;27.03
67509;BMP280;54354;44.724;11.284;2022-08-19T04:50:35;100822.41;;;27.04
67509;BMP280;54354;44.724;11.284;2022-08-19T04:53:01;100811.75;;;27.06
67509;BMP280;54354;44.724;11.284;2022-08-19T04:55:26;100796.19;;;27.06
67509;BMP280;54354;44.724;11.284;2022-08-19T04:57:53;100778.19;;;27.03
67509;BMP280;54354;44.724;11.284;2022-08-19T05:00:19;100786.91;;;27.02
67509;BMP280;54354;44.724;11.284;2022-08-19T05:02:44;100788.13;;;27.01
67509;BMP280;54354;44.724;11.284;2022-08-19T05:05:10;100800.50;;;27.02
67509;BMP280;54354;44.724;11.284;2022-08-19T05:07:36;100774.56;;;27.01
67509;BMP280;54354;44.724;11.284;2022-08-19T05:10:03;100758.97;;;27.01
67509;BMP280;54354;44.724;11.284;2022-08-19T05:12:33;100758.44;;;27.03
67509;BMP280;54354;44.724;11.284;2022-08-19T05:14:59;100733.25;;;27.02
67509;BMP280;54354;44.724;11.284;2022-08-19T05:17:26;100746.22;;;26.96
67509;BMP280;54354;44.724;11.284;2022-08-19T05:19:52;100784.59;;;26.93
67509;BMP280;54354;44.724;11.284;2022-08-19T05:22:36;100812.41;;;26.86
67509;BMP280;54354;44.724;11.284;2022-08-19T05:25:08;100820.00;;;26.74
67509;BMP280;54354;44.724;11.284;2022-08-19T05:27:34;100792.84;;;26.74
67509;BMP280;54354;44.724;11.284;2022-08-19T05:30:00;100787.22;;;26.72
67509;BMP280;54354;44.724;11.284;2022-08-19T05:32:27;100792.44;;;26.70
67509;BMP280;54354;44.724;11.284;2022-08-19T05:34:52;100803.31;;;26.70
67509;BMP280;54354;44.724;11.284;2022-08-19T05:37:18;100798.59;;;26.70
67509;BMP280;54354;44.724;11.284;2022-08-19T05:39:44;100790.44;;;26.70
67509;BMP280;54354;44.724;11.284;2022-08-19T05:42:11;100767.28;;;26.69
67509;BMP280;54354;44.724;11.284;2022-08-19T05:44:39;100772.25;;;26.65
67509;BMP280;54354;44.724;11.284;2022-08-19T05:47:08;100789.81;;;26.64
67509;BMP280;54354;44.724;11.284;2022-08-19T05:49:34;100815.41;;;26.56
67509;BMP280;54354;44.724;11.284;2022-08-19T05:52:06;100854.88;;;26.43
67509;BMP280;54354;44.724;11.284;2022-08-19T05:54:32;100903.59;;;26.36
67509;BMP280;54354;44.724;11.284;2022-08-19T05:57:00;100897.09;;;26.26
67509;BMP280;54354;44.724;11.284;2022-08-19T05:59:25;100878.81;;;26.26
67509;BMP280;54354;44.724;11.284;2022-08-19T06:01:53;100829.53;;;26.22
67509;BMP280;54354;44.724;11.284;2022-08-19T06:04:23;100883.31;;;26.24
67509;BMP280;54354;44.724;11.284;2022-08-19T06:06:50;100877.88;;;26.24
67509;BMP280;54354;44.724;11.284;2022-08-19T06:09:17;100850.22;;;26.25
67509;BMP280;54354;44.724;11.284;2022-08-19T06:11:49;100803.44;;;26.19
67509;BMP280;54354;44.724;11.284;2022-08-19T06:14:21;100763.28;;;26.12
67509;BMP280;54354;44.724;11.284;2022-08-19T06:16:48;100776.13;;;26.11
67509;BMP280;54354;44.724;11.284;2022-08-19T06:19:16;100830.81;;;26.02
67509;BMP280;54354;44.724;11.284;2022-08-19T06:21:43;100855.22;;;26.02
67509;BMP280;54354;44.724;11.284;2022-08-19T06:24:12;100855.97;;;26.03
67509;BMP280;54354;44.724;11.284;2022-08-19T06:26:40;100845.13;;;26.03
67509;BMP280;54354;44.724;11.284;2022-08-19T06:29:07;100837.91;;;26.05
67509;BMP280;54354;44.724;11.284;2022-08-19T06:31:34;100832.06;;;26.01
67509;BMP280;54354;44.724;11.284;2022-08-19T06:34:05;100848.66;;;25.98
67509;BMP280;54354;44.724;11.284;2022-08-19T06:36:33;100852.09;;;25.98
67509;BMP280;54354;44.724;11.284;2022-08-19T06:39:05;100846.19;;;25.94
67509;BMP280;54354;44.724;11.284;2022-08-19T06:41:35;100847.69;;;25.95
67509;BMP280;54354;44.724;11.284;2022-08-19T06:44:01;100865.88;;;26.00
67509;BMP280;54354;44.724;11.284;2022-08-19T06:46:27;100873.81;;;25.98
67509;BMP280;54354;44.724;11.284;2022-08-19T06:48:53;100883.69;;;25.96
67509;BMP280;54354;44.724;11.284;2022-08-19T06:51:20;100885.69;;;25.95
67509;BMP280;54354;44.724;11.284;2022-08-19T06:53:47;100890.38;;;25.95
67509;BMP280;54354;44.724;11.284;2022-08-19T06:56:14;100890.59;;;25.97
67509;BMP280;54354;44.724;11.284;2022-08-19T06:58:40;100893.97;;;26.03
67509;BMP280;54354;44.724;11.284;2022-08-19T07:01:06;100889.47;;;26.05
67509;BMP280;54354;44.724;11.284;2022-08-19T07:03:33;100890.72;;;26.04
67509;BMP280;54354;44.724;11.284;2022-08-19T07:06:08;100897.84;;;26.07
67509;BMP280;54354;44.724;11.284;2022-08-19T07:08:35;100893.81;;;26.14
67509;BMP280;54354;44.724;11.284;2022-08-19T07:11:09;100887.88;;;26.16
67509;BMP280;54354;44.724;11.284;2022-08-19T07:13:36;100891.50;;;26.18
67509;BMP280;54354;44.724;11.284;2022-08-19T07:16:07;100902.91;;;26.17
67509;BMP280;54354;44.724;11.284;2022-08-19T07:18:33;100897.91;;;26.21
67509;BMP280;54354;44.724;11.284;2022-08-19T07:21:14;100882.34;;;26.21
67509;BMP280;54354;44.724;11.284;2022-08-19T07:23:41;100877.16;;;26.23
67509;BMP280;54354;44.724;11.284;2022-08-19T07:26:15;100876.19;;;26.21
67509;BMP280;54354;44.724;11.284;2022-08-19T07:28:42;100875.97;;;26.19
67509;BMP280;54354;44.724;11.284;2022-08-19T07:31:16;100885.69;;;26.14
67509;BMP280;54354;44.724;11.284;2022-08-19T07:33:44;100900.41;;;26.19
67509;BMP280;54354;44.724;11.284;2022-08-19T07:36:11;100909.38;;;26.14
67509;BMP280;54354;44.724;11.284;2022-08-19T07:38:40;100922.69;;;26.11
67509;BMP280;54354;44.724;11.284;2022-08-19T07:41:07;100933.63;;;26.06
67509;BMP280;54354;44.724;11.284;2022-08-19T07:43:34;100943.75;;;26.05
67509;BMP280;54354;44.724;11.284;2022-08-19T07:45:59;100951.16;;;26.05
67509;BMP280;54354;44.724;11.284;2022-08-19T07:48:26;100941.78;;;26.06
67509;BMP280;54354;44.724;11.284;2022-08-19T07:50:54;100929.91;;;26.09
67509;BMP280;54354;44.724;11.284;2022-08-19T07:53:21;100935.06;;;26.13
67509;BMP280;54354;44.724;11.284;2022-08-19T07:55:47;100932.53;;;26.15
67509;BMP280;54354;44.724;11.284;2022-08-19T07:58:14;100917.53;;;26.14
67509;BMP280;54354;44.724;11.284;2022-08-19T08:00:41;100914.25;;;26.15
67509;BMP280;54354;44.724;11.284;2022-08-19T08:03:07;100934.94;;;26.18
67509;BMP280;54354;44.724;11.284;2022-08-19T08:05:34;100938.94;;;26.17
67509;BMP280;54354;44.724;11.284;2022-08-19T08:08:18;100948.50;;;26.18
67509;BMP280;54354;44.724;11.284;2022-08-19T08:11:03;100945.53;;;26.22
67509;BMP280;54354;44.724;11.284;2022-08-19T08:13:28;100948.97;;;26.22
67509;BMP280;54354;44.724;11.284;2022-08-19T08:15:54;100953.38;;;26.25
67509;BMP280;54354;44.724;11.284;2022-08-19T08:18:20;100954.31;;;26.28
67509;BMP280;54354;44.724;11.284;2022-08-19T08:20:46;100954.53;;;26.30
67509;BMP280;54354;44.724;11.284;2022-08-19T08:23:11;100962.91;;;26.32
67509;BMP280;54354;44.724;11.284;2022-08-19T08:25:55;100955.00;;;26.34
67509;BMP280;54354;44.724;11.284;2022-08-19T08:28:22;100954.63;;;26.43
67509;BMP280;54354;44.724;11.284;2022-08-19T08:30:49;100955.84;;;26.42
67509;BMP280;54354;44.724;11.284;2022-08-19T08:33:22;100957.34;;;26.43
67509;BMP280;54354;44.724;11.284;2022-08-19T08:35:48;100966.03;;;26.55
67509;BMP280;54354;44.724;11.284;2022-08-19T08:38:14;100969.19;;;26.59
67509;BMP280;54354;44.724;11.284;2022-08-19T08:40:48;100960.53;;;26.60
67509;BMP280;54354;44.724;11.284;2022-08-19T08:43:27;100968.78;;;26.68
67509;BMP280;54354;44.724;11.284;2022-08-19T08:46:07;100972.22;;;26.87
67509;BMP280;54354;44.724;11.284;2022-08-19T08:48:49;100971.81;;;26.96
67509;BMP280;54354;44.724;11.284;2022-08-19T08:51:24;100966.06;;;27.00
67509;BMP280;54354;44.724;11.284;2022-08-19T08:53:51;100968.28;;;27.15
67509;BMP280;54354;44.724;11.284;2022-08-19T08:56:17;100968.94;;;27.34
67509;BMP280;54354;44.724;11.284;2022-08-19T08:59:07;100963.56;;;27.55
67509;BMP280;54354;44.724;11.284;2022-08-19T09:01:35;100968.66;;;27.85
67509;BMP280;54354;44.724;11.284;2022-08-19T09:04:04;100970.84;;;27.99
67509;BMP280;54354;44.724;11.284;2022-08-19T09:09:46;100981.47;;;28.45
67509;BMP280;54354;44.724;11.284;2022-08-19T09:12:31;100988.91;;;28.44
67509;BMP280;54354;44.724;11.284;2022-08-19T09:15:06;100993.59;;;28.44
67509;BMP280;54354;44.724;11.284;2022-08-19T09:17:33;100997.50;;;28.48
67509;BMP280;54354;44.724;11.284;2022-08-19T09:20:19;100996.22;;;28.49
67509;BMP280;54354;44.724;11.284;2022-08-19T09:22:45;100998.09;;;28.54
67509;BMP280;54354;44.724;11.284;2022-08-19T09:25:13;101002.28;;;28.55
67509;BMP280;54354;44.724;11.284;2022-08-19T09:27:41;101006.53;;;28.64
67509;BMP280;54354;44.724;11.284;2022-08-19T09:30:08;101005.88;;;28.71
67509;BMP280;54354;44.724;11.284;2022-08-19T09:32:34;101011.91;;;28.77
67509;BMP280;54354;44.724;11.284;2022-08-19T09:35:00;101008.84;;;28.81
67509;BMP280;54354;44.724;11.284;2022-08-19T09:37:26;100999.28;;;28.87
67509;BMP280;54354;44.724;11.284;2022-08-19T09:39:52;100996.00;;;28.89
67509;BMP280;54354;44.724;11.284;2022-08-19T09:42:24;101005.78;;;28.84
67509;BMP280;54354;44.724;11.284;2022-08-19T09:44:49;101009.84;;;28.91
67509;BMP280;54354;44.724;11.284;2022-08-19T09:47:14;101003.53;;;28.96
67509;BMP280;54354;44.724;11.284;2022-08-19T09:49:40;101001.91;;;29.01
67509;BMP280;54354;44.724;11.284;2022-08-19T09:52:09;100999.38;;;29.03
67509;BMP280;54354;44.724;11.284;2022-08-19T09:54:36;101000.91;;;29.11
67509;BMP280;54354;44.724;11.284;2022-08-19T09:57:02;101003.22;;;29.07
67509;BMP280;54354;44.724;11.284;2022-08-19T09:59:29;101000.13;;;29.03
67509;BMP280;54354;44.724;11.284;2022-08-19T10:01:55;100998.84;;;29.04
67509;BMP280;54354;44.724;11.284;2022-08-19T10:04:21;100999.03;;;29.06
67509;BMP280;54354;44.724;11.284;2022-08-19T10:06:48;100993.06;;;29.08
67509;BMP280;54354;44.724;11.284;2022-08-19T10:09:16;100993.06;;;29.08
67509;BMP280;54354;44.724;11.284;2022-08-19T10:11:44;100990.91;;;29.14
67509;BMP280;54354;44.724;11.284;2022-08-19T10:14:13;100998.06;;;29.24
67509;BMP280;54354;44.724;11.284;2022-08-19T10:16:40;100998.13;;;29.32
67509;BMP280;54354;44.724;11.284;2022-08-19T10:19:07;101003.06;;;29.41
67509;BMP280;54354;44.724;11.284;2022-08-19T10:21:34;100988.19;;;29.50
67509;BMP280;54354;44.724;11.284;2022-08-19T10:24:01;100985.31;;;29.55
67509;BMP280;54354;44.724;11.284;2022-08-19T10:26:33;100983.50;;;29.58
67509;BMP280;54354;44.724;11.284;2022-08-19T10:29:01;100987.16;;;29.60
67509;BMP280;54354;44.724;11.284;2022-08-19T10:31:29;100975.16;;;29.63
67509;BMP280;54354;44.724;11.284;2022-08-19T10:33:55;100977.00;;;29.69
67509;BMP280;54354;44.724;11.284;2022-08-19T10:36:32;100978.28;;;29.68
67509;BMP280;54354;44.724;11.284;2022-08-19T10:39:05;100981.56;;;29.74
67509;BMP280;54354;44.724;11.284;2022-08-19T10:41:34;100971.56;;;29.76
67509;BMP280;54354;44.724;11.284;2022-08-19T10:44:04;100969.75;;;29.79
67509;BMP280;54354;44.724;11.284;2022-08-19T10:46:32;100964.13;;;29.84
67509;BMP280;54354;44.724;11.284;2022-08-19T10:48:59;100966.50;;;29.88
67509;BMP280;54354;44.724;11.284;2022-08-19T10:51:25;100976.53;;;29.93
67509;BMP280;54354;44.724;11.284;2022-08-19T10:54:09;100961.81;;;29.96
67509;BMP280;54354;44.724;11.284;2022-08-19T10:56:35;100961.44;;;30.00
67509;BMP280;54354;44.724;11.284;2022-08-19T10:59:27;100949.59;;;30.05
67509;BMP280;54354;44.724;11.284;2022-08-19T11:01:58;100943.97;;;30.03
67509;BMP280;54354;44.724;11.284;2022-08-19T11:04:24;100943.59;;;30.06
67509;BMP280;54354;44.724;11.284;2022-08-19T11:06:50;100949.06;;;30.06
67509;BMP280;54354;44.724;11.284;2022-08-19T11:09:24;100944.13;;;30.05
67509;BMP280;54354;44.724;11.284;2022-08-19T11:11:51;100949.63;;;30.12
67509;BMP280;54354;44.724;11.284;2022-08-19T11:14:18;100952.69;;;30.16
67509;BMP280;54354;44.724;11.284;2022-08-19T11:16:45;100954.00;;;30.23
67509;BMP280;54354;44.724;11.284;2022-08-19T11:19:12;100954.75;;;30.23
67509;BMP280;54354;44.724;11.284;2022-08-19T11:21:40;100950.38;;;30.20
67509;BMP280;54354;44.724;11.284;2022-08-19T11:24:09;100943.41;;;30.19
67509;BMP280;54354;44.724;11.284;2022-08-19T11:26:37;100946.72;;;30.18
67509;BMP280;54354;44.724;11.284;2022-08-19T11:29:04;100950.53;;;30.15
67509;BMP280;54354;44.724;11.284;2022-08-19T11:31:33;100943.22;;;30.10
67509;BMP280;54354;44.724;11.284;2022-08-19T11:34:02;100949.09;;;30.14
67509;BMP280;54354;44.724;11.284;2022-08-19T11:36:29;100945.25;;;30.17
67509;BMP280;54354;44.724;11.284;2022-08-19T11:38:57;100947.25;;;30.24
67509;BMP280;54354;44.724;11.284;2022-08-19T11:41:23;100949.25;;;30.31
67509;BMP280;54354;44.724;11.284;2022-08-19T11:43:50;100955.28;;;30.37
67509;BMP280;54354;44.724;11.284;2022-08-19T11:46:18;100951.25;;;30.46
67509;BMP280;54354;44.724;11.284;2022-08-19T11:48:44;100951.81;;;30.44
67509;BMP280;54354;44.724;11.284;2022-08-19T11:51:15;100942.88;;;30.36
67509;BMP280;54354;44.724;11.284;2022-08-19T11:53:41;100944.34;;;30.37
67509;BMP280;54354;44.724;11.284;2022-08-19T11:56:08;100939.81;;;30.32
67509;BMP280;54354;44.724;11.284;2022-08-19T11:58:34;100940.00;;;30.26
67509;BMP280;54354;44.724;11.284;2022-08-19T12:01:01;100944.34;;;30.22
67509;BMP280;54354;44.724;11.284;2022-08-19T12:03:26;100948.38;;;30.21
67509;BMP280;54354;44.724;11.284;2022-08-19T12:05:53;100946.00;;;30.17
67509;BMP280;54354;44.724;11.284;2022-08-19T12:08:19;100942.69;;;30.19
67509;BMP280;54354;44.724;11.284;2022-08-19T12:10:44;100946.16;;;30.27
67509;BMP280;54354;44.724;11.284;2022-08-19T12:13:11;100942.53;;;30.32
67509;BMP280;54354;44.724;11.284;2022-08-19T12:15:40;100933.63;;;30.32
67509;BMP280;54354;44.724;11.284;2022-08-19T12:18:08;100934.50;;;30.34
67509;BMP280;54354;44.724;11.284;2022-08-19T12:20:39;100934.53;;;30.26
67509;BMP280;54354;44.724;11.284;2022-08-19T12:23:06;100933.22;;;30.27
67509;BMP280;54354;44.724;11.284;2022-08-19T12:25:32;100935.03;;;30.25
67509;BMP280;54354;44.724;11.284;2022-08-19T12:27:58;100926.84;;;30.25
67509;BMP280;54354;44.724;11.284;2022-08-19T12:30:24;100930.13;;;30.31
67509;BMP280;54354;44.724;11.284;2022-08-19T12:32:50;100922.31;;;30.35
67509;BMP280;54354;44.724;11.284;2022-08-19T12:35:17;100927.06;;;30.35
67509;BMP280;54354;44.724;11.284;2022-08-19T12:37:47;100926.13;;;30.17
67509;BMP280;54354;44.724;11.284;2022-08-19T12:40:14;100920.13;;;30.11
67509;BMP280;54354;44.724;11.284;2022-08-19T12:42:40;100922.66;;;30.16
67509;BMP280;54354;44.724;11.284;2022-08-19T12:45:10;100917.75;;;30.22
67509;BMP280;54354;44.724;11.284;2022-08-19T12:47:36;100917.75;;;30.22
67509;BMP280;54354;44.724;11.284;2022-08-19T12:50:03;100912.63;;;30.19
67509;BMP280;54354;44.724;11.284;2022-08-19T12:52:29;100914.47;;;30.16
67509;BMP280;54354;44.724;11.284;2022-08-19T12:54:56;100917.19;;;30.16
67509;BMP280;54354;44.724;11.284;2022-08-19T12:57:23;100922.31;;;30.12
67509;BMP280;54354;44.724;11.284;2022-08-19T12:59:52;100927.06;;;30.12
67509;BMP280;54354;44.724;11.284;2022-08-19T13:02:19;100929.38;;;30.15
67509;BMP280;54354;44.724;11.284;2022-08-19T13:04:45;100937.75;;;30.10
67509;BMP280;54354;44.724;11.284;2022-08-19T13:07:10;100936.84;;;30.07
67509;BMP280;54354;44.724;11.284;2022-08-19T13:09:36;100944.31;;;30.07
67509;BMP280;54354;44.724;11.284;2022-08-19T13:12:02;100942.13;;;29.98
67509;BMP280;54354;44.724;11.284;2022-08-19T13:14:35;100950.69;;;29.94
67509;BMP280;54354;44.724;11.284;2022-08-19T13:17:01;100945.97;;;29.94
67509;BMP280;54354;44.724;11.284;2022-08-19T13:19:26;100951.03;;;29.98
67509;BMP280;54354;44.724;11.284;2022-08-19T13:21:52;100942.84;;;29.90
67509;BMP280;54354;44.724;11.284;2022-08-19T13:24:19;100954.09;;;29.79
67509;BMP280;54354;44.724;11.284;2022-08-19T13:26:44;100954.09;;;29.72
67509;BMP280;54354;44.724;11.284;2022-08-19T13:29:10;100950.06;;;29.65
67509;BMP280;54354;44.724;11.284;2022-08-19T13:31:54;100947.88;;;29.63
67509;BMP280;54354;44.724;11.284;2022-08-19T13:34:38;100953.13;;;29.61
67509;BMP280;54354;44.724;11.284;2022-08-19T13:37:04;100947.66;;;29.54
67509;BMP280;54354;44.724;11.284;2022-08-19T13:39:34;100940.66;;;29.38
67509;BMP280;54354;44.724;11.284;2022-08-19T13:42:00;100947.25;;;29.42
67509;BMP280;54354;44.724;11.284;2022-08-19T13:44:27;100936.31;;;29.42
67509;BMP280;54354;44.724;11.284;2022-08-19T13:47:00;100935.06;;;29.43
67509;BMP280;54354;44.724;11.284;2022-08-19T13:49:28;100930.34;;;29.51
67509;BMP280;54354;44.724;11.284;2022-08-19T13:51:56;100933.81;;;29.52
67509;BMP280;54354;44.724;11.284;2022-08-19T13:54:21;100941.97;;;29.44